Flight Track Log - Related Links

Times and Time Zones

All times are in EDT time to prevent confusion due to time zone crossing. See the TCF3444 flight status page for this flight to view local times or setup timezone preferences in your user account.

Time Position Orientation Groundspeed Altitude Reporting Facility
EDT Latitude Longitude Course Direction KTS MPH feet Rate Location/Type
Sun 02:56:13 PM 40.8075 -111.9619 146° Southeast 168 193 5,000  Level Salt Lake Center
Sun 02:57:20 PM 40.8631 -111.9714 353° North 198 228 6,700 1,952 Climbing Salt Lake Center
Sun 02:58:19 PM 40.9264 -111.9794 355° North 253 291 9,100 2,750 Climbing Salt Lake Center
Sun 02:59:00 PM 41.1333 -111.8765 90° East  Level FlightAware Approximate
Sun 02:59:20 PM 40.9803 -111.9211 39° Northeast 296 341 12,200  Level Salt Lake Center
Sun 03:00:00 PM 41.1023 -111.7595 159° South  Level FlightAware Approximate
Sun 03:00:22 PM 40.9561 -111.7878 103° East 338 389 14,200  Level Salt Lake Center
Sun 03:01:00 PM 41.0148 -111.6882 146° Southeast  Level FlightAware Approximate
Sun 03:01:24 PM 40.9331 -111.6556 103° East 373 429 16,400  Level Salt Lake Center
Sun 03:02:25 PM 40.9225 -111.5150 96° East 388 447 18,700 2,195 Climbing Salt Lake Center
Sun 03:03:27 PM 40.9111 -111.3669 96° East 406 467 20,900 2,129 Climbing Salt Lake Center
Sun 03:04:29 PM 40.8983 -111.2161 96° East 414 476 23,100 2,195 Climbing Salt Lake Center
Sun 03:05:30 PM 40.8836 -111.0306 96° East 424 488 25,400 1,902 Climbing Salt Lake Center
Sun 03:06:32 PM 40.8692 -110.8717 97° East 434 499 27,000 1,452 Climbing Salt Lake Center
Sun 03:07:34 PM 40.8558 -110.7083 96° East 443 510 28,400 1,366 Climbing Salt Lake Center
Sun 03:08:35 PM 40.8428 -110.5289 95° East 453 521 29,800 1,171 Climbing Salt Lake Center
Sun 03:09:37 PM 40.8286 -110.3692 97° East 458 527 30,800 1,065 Climbing Salt Lake Center
Sun 03:10:39 PM 40.8103 -110.1769 97° East 466 536 32,000 976 Climbing Salt Lake Center
Sun 03:11:40 PM 40.7958 -110.0078 96° East 480 552 32,800 488 Climbing Salt Lake Center
Sun 03:12:42 PM 40.7811 -109.8419 97° East 479 551 33,000 97 Climbing Salt Lake Center
Sun 03:13:44 PM 40.7625 -109.6481 97° East 477 549 33,000  Level Salt Lake Center
Sun 03:14:45 PM 40.7469 -109.4822 97° East 476 548 33,000  Level Salt Lake Center
Sun 03:15:47 PM 40.7283 -109.2914 97° East 472 543 33,000  Level Salt Lake Center
Sun 03:16:49 PM 40.7136 -109.1358 97° East 469 540 33,000  Level Salt Lake Center
Sun 03:17:50 PM 40.6958 -108.9469 97° East 468 539 33,000  Level Salt Lake Center
Sun 03:18:52 PM 40.6792 -108.7836 98° East 473 544 33,000  Level Salt Lake Center
Sun 03:19:34 PM 40.6664 -108.6594 98° East 473 544 33,000  Level Denver Center
Sun 03:19:54 PM 40.6594 -108.5914 98° East 475 547 33,000  Level Salt Lake Center
Sun 03:20:56 PM 40.6422 -108.4275 98° East 476 548 33,000  Level Salt Lake Center
Sun 03:21:38 PM 40.6289 -108.3017 98° East 474 545 33,000  Level Denver Center
Sun 03:21:57 PM 40.6225 -108.2358 97° East 476 548 33,000  Level Salt Lake Center
Sun 03:22:40 PM 40.6083 -108.1094 98° East 474 545 33,000  Level Denver Center
Sun 03:23:42 PM 40.5911 -107.9450 98° East 473 544 33,000  Level Denver Center
Sun 03:24:44 PM 40.5728 -107.7819 98° East 471 542 33,000  Level Denver Center
Sun 03:25:46 PM 40.5525 -107.5917 98° East 470 541 33,000  Level Denver Center
Sun 03:26:48 PM 40.5344 -107.4289 98° East 469 540 33,000  Level Denver Center
Sun 03:28:02 PM 40.5133 -107.2028 97° East 469 540 33,000  Level Denver Center
Sun 03:29:04 PM 40.5069 -107.0442 93° East 472 543 33,000  Level Denver Center
Sun 03:30:06 PM 40.4972 -106.8742 94° East 468 539 33,000  Level Denver Center
Sun 03:31:08 PM 40.4872 -106.7067 94° East 460 529 33,000  Level Denver Center
Sun 03:32:10 PM 40.4775 -106.5378 94° East 460 529 33,000  Level Denver Center
Sun 03:33:12 PM 40.4656 -106.3478 95° East 462 532 33,000 -484 Level Denver Center
Sun 03:34:14 PM 40.4547 -106.1547 94° East 463 533 32,000 -1,645 Descending Denver Center
Sun 03:35:16 PM 40.4439 -105.9872 95° East 458 527 29,600 -2,118 Descending Denver Center
Sun 03:36:30 PM 40.4189 -105.8283 102° East 441 507 27,200 -2,190 Descending Denver Center
Sun 03:37:33 PM 40.3903 -105.6497 102° East 426 490 24,600 -2,064 Descending Denver Center
Sun 03:38:35 PM 40.3619 -105.5028 104° East 413 475 22,900 -1,742 Descending Denver Center
Sun 03:39:37 PM 40.2919 -105.3664 124° Southeast 397 457 21,000 -1,676 Descending Denver Center
Sun 03:40:51 PM 40.2161 -105.2244 125° Southeast 384 442 19,100 -1,544 Descending Denver Center
Sun 03:41:53 PM 40.1572 -105.1114 124° Southeast 379 436 17,500 -1,548 Descending Denver Center
Sun 03:42:55 PM 40.0931 -104.9919 125° Southeast 374 430 15,900 -1,258 Descending Denver Center
Sun 03:43:57 PM 40.0378 -104.8889 125° Southeast 344 396 14,900 -823 Descending Denver Center
Sun 03:44:59 PM 39.9869 -104.7942 125° Southeast 293 337 14,200 -1,016 Descending Denver Center
Sun 03:46:01 PM 39.9572 -104.7067 114° Southeast 272 313 12,800 -1,210 Descending Denver Center
Sun 03:47:03 PM 39.9561 -104.6111 91° East 262 302 11,700 -1,145 Descending Denver Center
Sun 03:47:51 PM 39.9500 -104.5333 96° East 255 293 10,700 -1,667 Descending Denver TRACON
Sun 03:48:51 PM 39.9333 -104.4500 105° East 257 296 8,700 -1,722 Descending Denver TRACON
Sun 03:49:39 PM 39.8833 -104.4500 180° South 240 276 7,600 -1,231 Descending Denver TRACON
Sun 03:50:09 PM 39.8747 -104.4889 254° West 220 253 7,100 -1,000 Descending Denver Center
Sun 03:50:39 PM 39.8833 -104.5333 284° West 203 234 6,600 -1,000 Descending Denver TRACON

Login

Don't have an account? Register now (free) for customized features, flight alerts, and more!